sensor_id;sensor_type;location;lat;lon;timestamp;P1;durP1;ratioP1;P2;durP2;ratioP2
49366;SDS011;35245;52.026;8.540;2023-06-14T00:00:17;5.70;;;2.60;;
49366;SDS011;35245;52.026;8.540;2023-06-14T00:02:45;3.17;;;2.30;;
49366;SDS011;35245;52.026;8.540;2023-06-14T00:05:12;5.68;;;2.33;;
49366;SDS011;35245;52.026;8.540;2023-06-14T00:07:39;6.97;;;2.40;;
49366;SDS011;35245;52.026;8.540;2023-06-14T00:10:10;3.53;;;2.08;;
49366;SDS011;35245;52.026;8.540;2023-06-14T00:12:38;6.18;;;2.72;;
49366;SDS011;35245;52.026;8.540;2023-06-14T00:15:05;6.28;;;2.40;;
49366;SDS011;35245;52.026;8.540;2023-06-14T00:17:34;6.10;;;2.53;;
49366;SDS011;35245;52.026;8.540;2023-06-14T00:20:04;5.38;;;2.80;;
49366;SDS011;35245;52.026;8.540;2023-06-14T00:22:33;5.30;;;2.72;;
49366;SDS011;35245;52.026;8.540;2023-06-14T00:25:01;10.82;;;2.40;;
49366;SDS011;35245;52.026;8.540;2023-06-14T00:27:30;3.08;;;2.22;;
49366;SDS011;35245;52.026;8.540;2023-06-14T00:29:57;4.82;;;2.70;;
49366;SDS011;35245;52.026;8.540;2023-06-14T00:32:24;5.57;;;2.65;;
49366;SDS011;35245;52.026;8.540;2023-06-14T00:34:52;4.03;;;2.53;;
49366;SDS011;35245;52.026;8.540;2023-06-14T00:37:20;5.88;;;2.47;;
49366;SDS011;35245;52.026;8.540;2023-06-14T00:39:48;3.30;;;2.63;;
49366;SDS011;35245;52.026;8.540;2023-06-14T00:42:22;6.30;;;2.78;;
49366;SDS011;35245;52.026;8.540;2023-06-14T00:44:52;5.30;;;2.45;;
49366;SDS011;35245;52.026;8.540;2023-06-14T00:47:20;8.77;;;2.78;;
49366;SDS011;35245;52.026;8.540;2023-06-14T00:49:47;3.75;;;2.08;;
49366;SDS011;35245;52.026;8.540;2023-06-14T00:52:16;9.00;;;3.55;;
49366;SDS011;35245;52.026;8.540;2023-06-14T00:54:45;6.85;;;3.17;;
49366;SDS011;35245;52.026;8.540;2023-06-14T00:57:12;6.88;;;3.13;;
49366;SDS011;35245;52.026;8.540;2023-06-14T00:59:42;28.13;;;7.75;;
49366;SDS011;35245;52.026;8.540;2023-06-14T01:02:12;10.00;;;3.45;;
49366;SDS011;35245;52.026;8.540;2023-06-14T01:04:41;8.93;;;2.85;;
49366;SDS011;35245;52.026;8.540;2023-06-14T01:07:15;5.93;;;2.60;;
49366;SDS011;35245;52.026;8.540;2023-06-14T01:09:58;4.15;;;2.50;;
49366;SDS011;35245;52.026;8.540;2023-06-14T01:12:39;4.55;;;2.83;;
49366;SDS011;35245;52.026;8.540;2023-06-14T01:15:17;7.85;;;2.85;;
49366;SDS011;35245;52.026;8.540;2023-06-14T01:17:47;6.43;;;3.15;;
49366;SDS011;35245;52.026;8.540;2023-06-14T01:20:19;6.40;;;2.80;;
49366;SDS011;35245;52.026;8.540;2023-06-14T01:22:51;6.28;;;2.70;;
49366;SDS011;35245;52.026;8.540;2023-06-14T01:25:19;3.50;;;2.58;;
49366;SDS011;35245;52.026;8.540;2023-06-14T01:27:48;6.20;;;2.83;;
49366;SDS011;35245;52.026;8.540;2023-06-14T01:30:17;7.70;;;2.67;;
49366;SDS011;35245;52.026;8.540;2023-06-14T01:32:46;6.13;;;3.13;;
49366;SDS011;35245;52.026;8.540;2023-06-14T01:35:15;7.95;;;3.10;;
49366;SDS011;35245;52.026;8.540;2023-06-14T01:37:43;7.22;;;2.90;;
49366;SDS011;35245;52.026;8.540;2023-06-14T01:40:14;5.18;;;3.03;;
49366;SDS011;35245;52.026;8.540;2023-06-14T01:42:42;6.90;;;2.80;;
49366;SDS011;35245;52.026;8.540;2023-06-14T01:45:12;7.53;;;2.50;;
49366;SDS011;35245;52.026;8.540;2023-06-14T01:47:40;5.75;;;3.38;;
49366;SDS011;35245;52.026;8.540;2023-06-14T01:50:08;4.18;;;2.65;;
49366;SDS011;35245;52.026;8.540;2023-06-14T01:52:36;6.18;;;3.38;;
49366;SDS011;35245;52.026;8.540;2023-06-14T01:55:04;3.45;;;2.60;;
49366;SDS011;35245;52.026;8.540;2023-06-14T01:57:34;8.88;;;2.95;;
49366;SDS011;35245;52.026;8.540;2023-06-14T02:00:01;5.50;;;3.00;;
49366;SDS011;35245;52.026;8.540;2023-06-14T02:02:30;3.47;;;2.60;;
49366;SDS011;35245;52.026;8.540;2023-06-14T02:04:57;5.40;;;2.70;;
49366;SDS011;35245;52.026;8.540;2023-06-14T02:07:24;5.28;;;2.65;;
49366;SDS011;35245;52.026;8.540;2023-06-14T02:09:52;5.68;;;2.88;;
49366;SDS011;35245;52.026;8.540;2023-06-14T02:12:19;5.85;;;3.03;;
49366;SDS011;35245;52.026;8.540;2023-06-14T02:14:47;6.95;;;2.83;;
49366;SDS011;35245;52.026;8.540;2023-06-14T02:17:15;8.07;;;3.22;;
49366;SDS011;35245;52.026;8.540;2023-06-14T02:19:42;5.40;;;2.70;;
49366;SDS011;35245;52.026;8.540;2023-06-14T02:22:09;4.70;;;3.10;;
49366;SDS011;35245;52.026;8.540;2023-06-14T02:24:36;4.43;;;2.83;;
49366;SDS011;35245;52.026;8.540;2023-06-14T02:27:04;8.02;;;3.03;;
49366;SDS011;35245;52.026;8.540;2023-06-14T02:29:31;5.43;;;2.92;;
49366;SDS011;35245;52.026;8.540;2023-06-14T02:32:00;5.25;;;2.83;;
49366;SDS011;35245;52.026;8.540;2023-06-14T02:34:27;5.65;;;2.95;;
49366;SDS011;35245;52.026;8.540;2023-06-14T02:36:54;5.32;;;3.42;;
49366;SDS011;35245;52.026;8.540;2023-06-14T02:39:22;6.75;;;2.92;;
49366;SDS011;35245;52.026;8.540;2023-06-14T02:41:49;9.38;;;3.00;;
49366;SDS011;35245;52.026;8.540;2023-06-14T02:44:17;5.60;;;2.97;;
49366;SDS011;35245;52.026;8.540;2023-06-14T02:46:44;5.90;;;3.00;;
49366;SDS011;35245;52.026;8.540;2023-06-14T02:49:13;5.53;;;2.92;;
49366;SDS011;35245;52.026;8.540;2023-06-14T02:51:40;8.57;;;3.47;;
49366;SDS011;35245;52.026;8.540;2023-06-14T02:54:07;5.18;;;3.70;;
49366;SDS011;35245;52.026;8.540;2023-06-14T02:56:34;8.35;;;3.38;;
49366;SDS011;35245;52.026;8.540;2023-06-14T02:59:02;6.35;;;3.17;;
49366;SDS011;35245;52.026;8.540;2023-06-14T03:01:29;6.70;;;3.25;;
49366;SDS011;35245;52.026;8.540;2023-06-14T03:03:59;6.35;;;3.53;;
49366;SDS011;35245;52.026;8.540;2023-06-14T03:06:29;4.65;;;3.25;;
49366;SDS011;35245;52.026;8.540;2023-06-14T03:08:56;5.75;;;3.22;;
49366;SDS011;35245;52.026;8.540;2023-06-14T03:11:26;5.63;;;2.83;;
49366;SDS011;35245;52.026;8.540;2023-06-14T03:13:53;10.43;;;3.38;;
49366;SDS011;35245;52.026;8.540;2023-06-14T03:16:21;8.77;;;3.30;;
49366;SDS011;35245;52.026;8.540;2023-06-14T03:18:49;7.57;;;3.28;;
49366;SDS011;35245;52.026;8.540;2023-06-14T03:21:17;4.28;;;2.95;;
49366;SDS011;35245;52.026;8.540;2023-06-14T03:23:46;5.13;;;2.95;;
49366;SDS011;35245;52.026;8.540;2023-06-14T03:26:13;4.30;;;3.00;;
49366;SDS011;35245;52.026;8.540;2023-06-14T03:28:43;4.18;;;2.78;;
49366;SDS011;35245;52.026;8.540;2023-06-14T03:31:10;7.82;;;2.97;;
49366;SDS011;35245;52.026;8.540;2023-06-14T03:33:37;7.07;;;3.30;;
49366;SDS011;35245;52.026;8.540;2023-06-14T03:36:04;6.82;;;2.85;;
49366;SDS011;35245;52.026;8.540;2023-06-14T03:38:32;5.47;;;3.08;;
49366;SDS011;35245;52.026;8.540;2023-06-14T03:41:01;5.90;;;2.60;;
49366;SDS011;35245;52.026;8.540;2023-06-14T03:43:28;7.75;;;3.88;;
49366;SDS011;35245;52.026;8.540;2023-06-14T03:45:56;7.82;;;3.03;;
49366;SDS011;35245;52.026;8.540;2023-06-14T03:48:23;8.00;;;3.15;;
49366;SDS011;35245;52.026;8.540;2023-06-14T03:50:50;7.00;;;3.30;;
49366;SDS011;35245;52.026;8.540;2023-06-14T03:53:18;6.10;;;3.00;;
49366;SDS011;35245;52.026;8.540;2023-06-14T03:55:45;4.63;;;3.03;;
49366;SDS011;35245;52.026;8.540;2023-06-14T03:58:14;10.40;;;2.70;;
49366;SDS011;35245;52.026;8.540;2023-06-14T04:00:42;5.80;;;2.60;;
49366;SDS011;35245;52.026;8.540;2023-06-14T04:03:10;8.98;;;3.10;;
49366;SDS011;35245;52.026;8.540;2023-06-14T04:05:38;4.97;;;2.75;;
49366;SDS011;35245;52.026;8.540;2023-06-14T04:08:07;7.72;;;3.13;;
49366;SDS011;35245;52.026;8.540;2023-06-14T04:10:35;6.93;;;3.38;;
49366;SDS011;35245;52.026;8.540;2023-06-14T04:13:03;7.80;;;3.30;;
49366;SDS011;35245;52.026;8.540;2023-06-14T04:15:33;6.30;;;3.08;;
49366;SDS011;35245;52.026;8.540;2023-06-14T04:18:02;7.22;;;3.10;;
49366;SDS011;35245;52.026;8.540;2023-06-14T04:20:29;3.92;;;2.78;;
49366;SDS011;35245;52.026;8.540;2023-06-14T04:22:56;6.40;;;2.95;;
49366;SDS011;35245;52.026;8.540;2023-06-14T04:25:26;3.70;;;2.72;;
49366;SDS011;35245;52.026;8.540;2023-06-14T04:27:55;6.00;;;2.78;;
49366;SDS011;35245;52.026;8.540;2023-06-14T04:30:24;7.45;;;2.92;;
49366;SDS011;35245;52.026;8.540;2023-06-14T04:32:53;3.63;;;2.50;;
49366;SDS011;35245;52.026;8.540;2023-06-14T04:35:20;4.60;;;2.47;;
49366;SDS011;35245;52.026;8.540;2023-06-14T04:37:48;5.25;;;2.75;;
49366;SDS011;35245;52.026;8.540;2023-06-14T04:40:16;5.63;;;2.90;;
49366;SDS011;35245;52.026;8.540;2023-06-14T04:42:44;4.10;;;2.75;;
49366;SDS011;35245;52.026;8.540;2023-06-14T04:45:12;10.13;;;3.10;;
49366;SDS011;35245;52.026;8.540;2023-06-14T04:47:40;7.75;;;2.90;;
49366;SDS011;35245;52.026;8.540;2023-06-14T04:50:10;4.35;;;2.60;;
49366;SDS011;35245;52.026;8.540;2023-06-14T04:52:37;4.85;;;2.90;;
49366;SDS011;35245;52.026;8.540;2023-06-14T04:55:05;3.47;;;2.75;;
49366;SDS011;35245;52.026;8.540;2023-06-14T04:57:32;4.57;;;2.70;;
49366;SDS011;35245;52.026;8.540;2023-06-14T05:00:00;5.50;;;3.15;;
49366;SDS011;35245;52.026;8.540;2023-06-14T05:02:29;3.88;;;2.72;;
49366;SDS011;35245;52.026;8.540;2023-06-14T05:04:56;5.43;;;2.35;;
49366;SDS011;35245;52.026;8.540;2023-06-14T05:07:25;5.93;;;2.60;;
49366;SDS011;35245;52.026;8.540;2023-06-14T05:09:52;4.25;;;2.45;;
49366;SDS011;35245;52.026;8.540;2023-06-14T05:12:19;6.57;;;2.83;;
49366;SDS011;35245;52.026;8.540;2023-06-14T05:14:48;5.40;;;2.13;;
49366;SDS011;35245;52.026;8.540;2023-06-14T05:17:15;3.40;;;2.15;;
49366;SDS011;35245;52.026;8.540;2023-06-14T05:19:43;3.90;;;2.50;;
49366;SDS011;35245;52.026;8.540;2023-06-14T05:22:10;4.85;;;2.65;;
49366;SDS011;35245;52.026;8.540;2023-06-14T05:24:38;7.78;;;2.45;;
49366;SDS011;35245;52.026;8.540;2023-06-14T05:27:06;6.68;;;2.63;;
49366;SDS011;35245;52.026;8.540;2023-06-14T05:29:33;3.17;;;2.33;;
49366;SDS011;35245;52.026;8.540;2023-06-14T05:32:01;10.13;;;3.15;;
49366;SDS011;35245;52.026;8.540;2023-06-14T05:34:28;3.42;;;2.33;;
49366;SDS011;35245;52.026;8.540;2023-06-14T05:36:55;6.32;;;3.00;;
49366;SDS011;35245;52.026;8.540;2023-06-14T05:39:22;6.97;;;2.47;;
49366;SDS011;35245;52.026;8.540;2023-06-14T05:41:51;4.32;;;2.42;;
49366;SDS011;35245;52.026;8.540;2023-06-14T05:44:18;4.90;;;2.80;;
49366;SDS011;35245;52.026;8.540;2023-06-14T05:46:45;4.85;;;2.42;;
49366;SDS011;35245;52.026;8.540;2023-06-14T05:49:12;4.80;;;2.03;;
49366;SDS011;35245;52.026;8.540;2023-06-14T05:51:40;5.68;;;2.63;;
49366;SDS011;35245;52.026;8.540;2023-06-14T05:54:07;5.63;;;2.53;;
49366;SDS011;35245;52.026;8.540;2023-06-14T05:56:34;2.88;;;2.00;;
49366;SDS011;35245;52.026;8.540;2023-06-14T05:59:02;3.10;;;1.80;;
49366;SDS011;35245;52.026;8.540;2023-06-14T06:01:29;7.03;;;2.15;;
49366;SDS011;35245;52.026;8.540;2023-06-14T06:03:58;3.35;;;1.77;;
49366;SDS011;35245;52.026;8.540;2023-06-14T06:06:25;4.15;;;1.90;;
49366;SDS011;35245;52.026;8.540;2023-06-14T06:08:53;6.22;;;1.92;;
49366;SDS011;35245;52.026;8.540;2023-06-14T06:11:20;2.28;;;1.58;;
49366;SDS011;35245;52.026;8.540;2023-06-14T06:13:47;2.45;;;1.35;;
49366;SDS011;35245;52.026;8.540;2023-06-14T06:16:16;4.53;;;1.50;;
49366;SDS011;35245;52.026;8.540;2023-06-14T06:18:43;4.05;;;1.80;;
49366;SDS011;35245;52.026;8.540;2023-06-14T06:21:10;5.85;;;2.00;;
49366;SDS011;35245;52.026;8.540;2023-06-14T06:23:37;2.00;;;1.40;;
49366;SDS011;35245;52.026;8.540;2023-06-14T06:26:04;4.20;;;1.73;;
49366;SDS011;35245;52.026;8.540;2023-06-14T06:28:31;3.90;;;1.80;;
49366;SDS011;35245;52.026;8.540;2023-06-14T06:30:58;4.30;;;1.85;;
49366;SDS011;35245;52.026;8.540;2023-06-14T06:33:27;4.82;;;1.73;;
49366;SDS011;35245;52.026;8.540;2023-06-14T06:35:54;3.65;;;1.50;;
49366;SDS011;35245;52.026;8.540;2023-06-14T06:38:21;2.15;;;1.70;;
49366;SDS011;35245;52.026;8.540;2023-06-14T06:40:48;5.55;;;1.45;;
49366;SDS011;35245;52.026;8.540;2023-06-14T06:43:16;7.43;;;1.80;;
49366;SDS011;35245;52.026;8.540;2023-06-14T06:45:43;2.35;;;1.23;;
49366;SDS011;35245;52.026;8.540;2023-06-14T06:48:10;2.97;;;1.48;;
49366;SDS011;35245;52.026;8.540;2023-06-14T06:50:38;1.30;;;1.20;;
49366;SDS011;35245;52.026;8.540;2023-06-14T06:53:05;4.70;;;1.40;;
49366;SDS011;35245;52.026;8.540;2023-06-14T06:55:32;3.65;;;1.50;;
49366;SDS011;35245;52.026;8.540;2023-06-14T06:58:00;2.38;;;1.70;;
49366;SDS011;35245;52.026;8.540;2023-06-14T07:00:29;3.17;;;1.45;;
49366;SDS011;35245;52.026;8.540;2023-06-14T07:02:56;3.10;;;1.33;;
49366;SDS011;35245;52.026;8.540;2023-06-14T07:05:24;3.72;;;1.50;;
49366;SDS011;35245;52.026;8.540;2023-06-14T07:07:52;5.28;;;1.67;;
49366;SDS011;35245;52.026;8.540;2023-06-14T07:10:19;2.90;;;1.55;;
49366;SDS011;35245;52.026;8.540;2023-06-14T07:12:47;4.05;;;1.52;;
49366;SDS011;35245;52.026;8.540;2023-06-14T07:15:14;3.00;;;1.45;;
49366;SDS011;35245;52.026;8.540;2023-06-14T07:17:41;3.90;;;1.60;;
49366;SDS011;35245;52.026;8.540;2023-06-14T07:20:09;3.05;;;1.77;;
49366;SDS011;35245;52.026;8.540;2023-06-14T07:22:38;4.15;;;1.58;;
49366;SDS011;35245;52.026;8.540;2023-06-14T07:25:08;3.58;;;1.45;;
49366;SDS011;35245;52.026;8.540;2023-06-14T07:27:38;2.60;;;1.27;;
49366;SDS011;35245;52.026;8.540;2023-06-14T07:30:06;3.97;;;1.58;;
49366;SDS011;35245;52.026;8.540;2023-06-14T07:32:35;2.65;;;1.42;;
49366;SDS011;35245;52.026;8.540;2023-06-14T07:35:03;2.90;;;1.85;;
49366;SDS011;35245;52.026;8.540;2023-06-14T07:37:31;5.88;;;1.80;;
49366;SDS011;35245;52.026;8.540;2023-06-14T07:39:58;2.55;;;1.63;;
49366;SDS011;35245;52.026;8.540;2023-06-14T07:42:27;5.32;;;1.60;;
49366;SDS011;35245;52.026;8.540;2023-06-14T07:44:54;3.95;;;1.70;;
49366;SDS011;35245;52.026;8.540;2023-06-14T07:47:21;3.88;;;1.73;;
49366;SDS011;35245;52.026;8.540;2023-06-14T07:49:48;7.63;;;2.00;;
49366;SDS011;35245;52.026;8.540;2023-06-14T07:52:15;4.38;;;1.70;;
49366;SDS011;35245;52.026;8.540;2023-06-14T07:54:42;4.25;;;1.70;;
49366;SDS011;35245;52.026;8.540;2023-06-14T07:57:09;6.18;;;1.83;;
49366;SDS011;35245;52.026;8.540;2023-06-14T07:59:38;2.90;;;1.60;;
49366;SDS011;35245;52.026;8.540;2023-06-14T08:02:06;4.40;;;1.80;;
49366;SDS011;35245;52.026;8.540;2023-06-14T08:04:33;3.53;;;1.40;;
49366;SDS011;35245;52.026;8.540;2023-06-14T08:07:00;3.25;;;1.58;;
49366;SDS011;35245;52.026;8.540;2023-06-14T08:09:27;2.85;;;1.60;;
49366;SDS011;35245;52.026;8.540;2023-06-14T08:11:55;1.83;;;1.20;;
49366;SDS011;35245;52.026;8.540;2023-06-14T08:14:22;2.80;;;1.52;;
49366;SDS011;35245;52.026;8.540;2023-06-14T08:16:50;4.80;;;1.50;;
49366;SDS011;35245;52.026;8.540;2023-06-14T08:19:17;3.38;;;1.55;;
49366;SDS011;35245;52.026;8.540;2023-06-14T08:21:44;3.38;;;1.65;;
49366;SDS011;35245;52.026;8.540;2023-06-14T08:24:12;3.00;;;1.45;;
49366;SDS011;35245;52.026;8.540;2023-06-14T08:26:39;3.30;;;1.60;;
49366;SDS011;35245;52.026;8.540;2023-06-14T08:29:07;5.03;;;1.67;;
49366;SDS011;35245;52.026;8.540;2023-06-14T08:31:34;6.90;;;1.73;;
49366;SDS011;35245;52.026;8.540;2023-06-14T08:34:02;5.10;;;1.70;;
49366;SDS011;35245;52.026;8.540;2023-06-14T08:36:29;7.13;;;1.80;;
49366;SDS011;35245;52.026;8.540;2023-06-14T08:38:56;4.78;;;1.70;;
49366;SDS011;35245;52.026;8.540;2023-06-14T08:41:23;4.90;;;1.60;;
49366;SDS011;35245;52.026;8.540;2023-06-14T08:43:52;2.60;;;1.33;;
49366;SDS011;35245;52.026;8.540;2023-06-14T08:46:19;2.65;;;1.52;;
49366;SDS011;35245;52.026;8.540;2023-06-14T08:48:46;1.90;;;1.33;;
49366;SDS011;35245;52.026;8.540;2023-06-14T08:51:16;4.45;;;1.50;;
49366;SDS011;35245;52.026;8.540;2023-06-14T08:53:46;4.20;;;1.73;;
49366;SDS011;35245;52.026;8.540;2023-06-14T08:56:22;3.97;;;1.90;;
49366;SDS011;35245;52.026;8.540;2023-06-14T08:58:52;1.85;;;1.50;;
49366;SDS011;35245;52.026;8.540;2023-06-14T09:01:21;2.95;;;1.30;;
49366;SDS011;35245;52.026;8.540;2023-06-14T09:03:49;2.58;;;1.70;;
49366;SDS011;35245;52.026;8.540;2023-06-14T09:06:18;3.55;;;1.95;;
49366;SDS011;35245;52.026;8.540;2023-06-14T09:08:48;4.57;;;1.40;;
49366;SDS011;35245;52.026;8.540;2023-06-14T09:11:15;4.47;;;1.85;;
49366;SDS011;35245;52.026;8.540;2023-06-14T09:13:44;1.65;;;1.20;;
49366;SDS011;35245;52.026;8.540;2023-06-14T09:16:12;2.15;;;1.38;;
49366;SDS011;35245;52.026;8.540;2023-06-14T09:18:40;2.58;;;1.40;;
49366;SDS011;35245;52.026;8.540;2023-06-14T09:21:09;2.42;;;1.30;;
49366;SDS011;35245;52.026;8.540;2023-06-14T09:23:39;3.00;;;1.65;;
49366;SDS011;35245;52.026;8.540;2023-06-14T09:26:08;4.00;;;1.50;;
49366;SDS011;35245;52.026;8.540;2023-06-14T09:28:37;5.93;;;1.90;;
49366;SDS011;35245;52.026;8.540;2023-06-14T09:31:09;3.63;;;1.20;;
49366;SDS011;35245;52.026;8.540;2023-06-14T09:33:37;2.97;;;1.40;;
49366;SDS011;35245;52.026;8.540;2023-06-14T09:36:04;4.60;;;1.67;;
49366;SDS011;35245;52.026;8.540;2023-06-14T09:38:40;2.90;;;1.40;;
49366;SDS011;35245;52.026;8.540;2023-06-14T09:41:07;2.05;;;1.50;;
49366;SDS011;35245;52.026;8.540;2023-06-14T09:43:35;7.70;;;1.92;;
49366;SDS011;35245;52.026;8.540;2023-06-14T09:46:04;4.50;;;2.05;;
49366;SDS011;35245;52.026;8.540;2023-06-14T09:48:32;3.85;;;1.80;;
49366;SDS011;35245;52.026;8.540;2023-06-14T09:50:59;3.80;;;2.17;;
49366;SDS011;35245;52.026;8.540;2023-06-14T09:53:29;3.08;;;1.55;;
49366;SDS011;35245;52.026;8.540;2023-06-14T09:56:00;2.53;;;1.88;;
49366;SDS011;35245;52.026;8.540;2023-06-14T09:58:28;2.83;;;1.75;;
49366;SDS011;35245;52.026;8.540;2023-06-14T10:00:56;4.63;;;2.55;;
49366;SDS011;35245;52.026;8.540;2023-06-14T10:03:27;4.53;;;1.70;;
49366;SDS011;35245;52.026;8.540;2023-06-14T10:05:56;4.45;;;1.80;;
49366;SDS011;35245;52.026;8.540;2023-06-14T10:08:30;2.45;;;1.70;;
49366;SDS011;35245;52.026;8.540;2023-06-14T10:11:00;5.75;;;1.52;;
49366;SDS011;35245;52.026;8.540;2023-06-14T10:13:27;3.88;;;1.85;;
49366;SDS011;35245;52.026;8.540;2023-06-14T10:16:00;3.55;;;1.70;;
49366;SDS011;35245;52.026;8.540;2023-06-14T10:18:40;3.38;;;1.50;;
49366;SDS011;35245;52.026;8.540;2023-06-14T10:21:17;5.72;;;1.48;;
49366;SDS011;35245;52.026;8.540;2023-06-14T10:23:51;2.88;;;1.38;;
49366;SDS011;35245;52.026;8.540;2023-06-14T10:26:20;3.13;;;1.58;;
49366;SDS011;35245;52.026;8.540;2023-06-14T10:28:55;3.30;;;1.50;;
49366;SDS011;35245;52.026;8.540;2023-06-14T10:31:42;2.13;;;1.50;;
49366;SDS011;35245;52.026;8.540;2023-06-14T10:34:11;3.20;;;1.60;;
49366;SDS011;35245;52.026;8.540;2023-06-14T10:36:41;3.15;;;1.40;;
49366;SDS011;35245;52.026;8.540;2023-06-14T10:39:10;4.40;;;1.65;;
49366;SDS011;35245;52.026;8.540;2023-06-14T10:41:50;1.92;;;1.63;;
49366;SDS011;35245;52.026;8.540;2023-06-14T10:47:20;2.95;;;1.60;;
49366;SDS011;35245;52.026;8.540;2023-06-14T10:49:53;3.08;;;1.60;;
49366;SDS011;35245;52.026;8.540;2023-06-14T10:52:23;2.42;;;1.67;;
49366;SDS011;35245;52.026;8.540;2023-06-14T10:57:42;2.28;;;1.42;;
49366;SDS011;35245;52.026;8.540;2023-06-14T11:00:12;5.80;;;1.45;;
49366;SDS011;35245;52.026;8.540;2023-06-14T11:03:04;2.80;;;1.48;;
49366;SDS011;35245;52.026;8.540;2023-06-14T11:06:11;6.47;;;4.65;;
49366;SDS011;35245;52.026;8.540;2023-06-14T11:12:08;3.17;;;1.55;;
49366;SDS011;35245;52.026;8.540;2023-06-14T11:14:38;4.63;;;1.63;;
49366;SDS011;35245;52.026;8.540;2023-06-14T11:17:05;3.03;;;1.65;;
49366;SDS011;35245;52.026;8.540;2023-06-14T11:19:33;2.30;;;1.50;;
49366;SDS011;35245;52.026;8.540;2023-06-14T11:22:01;4.93;;;1.50;;
49366;SDS011;35245;52.026;8.540;2023-06-14T11:24:28;1.92;;;1.58;;
49366;SDS011;35245;52.026;8.540;2023-06-14T11:26:55;3.00;;;1.80;;
49366;SDS011;35245;52.026;8.540;2023-06-14T11:29:23;2.45;;;1.75;;
49366;SDS011;35245;52.026;8.540;2023-06-14T11:31:52;2.33;;;1.60;;
49366;SDS011;35245;52.026;8.540;2023-06-14T11:34:19;3.17;;;1.50;;
49366;SDS011;35245;52.026;8.540;2023-06-14T11:36:46;4.00;;;2.10;;
49366;SDS011;35245;52.026;8.540;2023-06-14T11:39:13;4.90;;;1.65;;
49366;SDS011;35245;52.026;8.540;2023-06-14T11:41:41;3.67;;;1.60;;
49366;SDS011;35245;52.026;8.540;2023-06-14T11:44:10;2.85;;;1.52;;
49366;SDS011;35245;52.026;8.540;2023-06-14T11:46:37;2.50;;;1.52;;
49366;SDS011;35245;52.026;8.540;2023-06-14T11:49:06;4.70;;;1.25;;
49366;SDS011;35245;52.026;8.540;2023-06-14T11:51:34;3.28;;;1.35;;
49366;SDS011;35245;52.026;8.540;2023-06-14T11:54:02;1.60;;;1.00;;
49366;SDS011;35245;52.026;8.540;2023-06-14T11:56:31;1.60;;;0.90;;
49366;SDS011;35245;52.026;8.540;2023-06-14T11:58:58;5.05;;;1.80;;
49366;SDS011;35245;52.026;8.540;2023-06-14T12:01:26;3.28;;;1.30;;
49366;SDS011;35245;52.026;8.540;2023-06-14T12:03:53;1.33;;;1.10;;
49366;SDS011;35245;52.026;8.540;2023-06-14T12:06:28;2.05;;;1.23;;
49366;SDS011;35245;52.026;8.540;2023-06-14T12:09:03;4.22;;;1.30;;
49366;SDS011;35245;52.026;8.540;2023-06-14T12:11:32;2.88;;;1.60;;
49366;SDS011;35245;52.026;8.540;2023-06-14T12:14:02;1.50;;;1.40;;
49366;SDS011;35245;52.026;8.540;2023-06-14T12:16:30;3.20;;;1.17;;
49366;SDS011;35245;52.026;8.540;2023-06-14T12:19:01;2.38;;;1.13;;
49366;SDS011;35245;52.026;8.540;2023-06-14T12:21:38;5.20;;;1.40;;
49366;SDS011;35245;52.026;8.540;2023-06-14T12:24:06;1.73;;;1.58;;
49366;SDS011;35245;52.026;8.540;2023-06-14T12:26:37;3.17;;;1.30;;
49366;SDS011;35245;52.026;8.540;2023-06-14T12:29:06;3.70;;;1.60;;
49366;SDS011;35245;52.026;8.540;2023-06-14T12:31:33;2.08;;;1.23;;
49366;SDS011;35245;52.026;8.540;2023-06-14T12:34:00;3.33;;;1.40;;
49366;SDS011;35245;52.026;8.540;2023-06-14T12:36:28;6.40;;;1.85;;
49366;SDS011;35245;52.026;8.540;2023-06-14T12:38:58;1.17;;;1.05;;
49366;SDS011;35245;52.026;8.540;2023-06-14T12:41:25;2.20;;;1.33;;
49366;SDS011;35245;52.026;8.540;2023-06-14T12:43:52;2.28;;;1.20;;
49366;SDS011;35245;52.026;8.540;2023-06-14T12:46:20;3.10;;;1.30;;
49366;SDS011;35245;52.026;8.540;2023-06-14T12:48:47;2.00;;;1.23;;
49366;SDS011;35245;52.026;8.540;2023-06-14T12:51:14;2.22;;;1.58;;
49366;SDS011;35245;52.026;8.540;2023-06-14T12:53:41;2.78;;;1.38;;
49366;SDS011;35245;52.026;8.540;2023-06-14T12:56:10;1.95;;;1.20;;
49366;SDS011;35245;52.026;8.540;2023-06-14T12:58:37;2.28;;;1.42;;
49366;SDS011;35245;52.026;8.540;2023-06-14T13:01:04;2.08;;;1.45;;
49366;SDS011;35245;52.026;8.540;2023-06-14T13:03:32;2.22;;;1.08;;
49366;SDS011;35245;52.026;8.540;2023-06-14T13:05:59;2.88;;;1.10;;
49366;SDS011;35245;52.026;8.540;2023-06-14T13:08:28;2.15;;;1.17;;
49366;SDS011;35245;52.026;8.540;2023-06-14T13:10:55;0.90;;;0.90;;
49366;SDS011;35245;52.026;8.540;2023-06-14T13:13:24;1.10;;;0.90;;
49366;SDS011;35245;52.026;8.540;2023-06-14T13:15:51;3.00;;;1.38;;
49366;SDS011;35245;52.026;8.540;2023-06-14T13:18:18;4.95;;;1.30;;
49366;SDS011;35245;52.026;8.540;2023-06-14T13:20:45;2.63;;;1.10;;
49366;SDS011;35245;52.026;8.540;2023-06-14T13:23:13;1.95;;;1.35;;
49366;SDS011;35245;52.026;8.540;2023-06-14T13:25:42;5.60;;;1.40;;
49366;SDS011;35245;52.026;8.540;2023-06-14T13:28:09;1.77;;;1.25;;
49366;SDS011;35245;52.026;8.540;2023-06-14T13:30:37;1.30;;;1.20;;
49366;SDS011;35245;52.026;8.540;2023-06-14T13:33:05;1.92;;;1.38;;
49366;SDS011;35245;52.026;8.540;2023-06-14T13:35:32;2.03;;;1.70;;
49366;SDS011;35245;52.026;8.540;2023-06-14T13:37:59;2.75;;;1.45;;
49366;SDS011;35245;52.026;8.540;2023-06-14T13:40:27;2.72;;;1.70;;
49366;SDS011;35245;52.026;8.540;2023-06-14T13:42:54;5.03;;;1.50;;
49366;SDS011;35245;52.026;8.540;2023-06-14T13:45:21;3.10;;;1.42;;
49366;SDS011;35245;52.026;8.540;2023-06-14T13:47:49;7.28;;;1.55;;
49366;SDS011;35245;52.026;8.540;2023-06-14T13:50:16;2.47;;;1.63;;
49366;SDS011;35245;52.026;8.540;2023-06-14T13:52:43;2.08;;;1.33;;
49366;SDS011;35245;52.026;8.540;2023-06-14T13:55:11;2.75;;;1.30;;
49366;SDS011;35245;52.026;8.540;2023-06-14T13:57:39;4.03;;;1.40;;
49366;SDS011;35245;52.026;8.540;2023-06-14T14:00:06;2.88;;;1.73;;
49366;SDS011;35245;52.026;8.540;2023-06-14T14:02:37;4.05;;;1.60;;
49366;SDS011;35245;52.026;8.540;2023-06-14T14:05:07;2.05;;;1.50;;
49366;SDS011;35245;52.026;8.540;2023-06-14T14:07:35;2.20;;;1.20;;
49366;SDS011;35245;52.026;8.540;2023-06-14T14:10:03;3.45;;;3.15;;
49366;SDS011;35245;52.026;8.540;2023-06-14T14:12:31;2.83;;;2.20;;
49366;SDS011;35245;52.026;8.540;2023-06-14T14:14:58;5.20;;;1.73;;
49366;SDS011;35245;52.026;8.540;2023-06-14T14:17:26;2.47;;;1.75;;
49366;SDS011;35245;52.026;8.540;2023-06-14T14:19:53;6.32;;;2.25;;
49366;SDS011;35245;52.026;8.540;2023-06-14T14:22:21;2.60;;;2.00;;
49366;SDS011;35245;52.026;8.540;2023-06-14T14:24:48;6.13;;;1.90;;
49366;SDS011;35245;52.026;8.540;2023-06-14T14:27:16;3.38;;;1.50;;
49366;SDS011;35245;52.026;8.540;2023-06-14T14:29:43;5.93;;;2.33;;
49366;SDS011;35245;52.026;8.540;2023-06-14T14:32:10;4.10;;;2.20;;
49366;SDS011;35245;52.026;8.540;2023-06-14T14:34:39;3.97;;;1.90;;
49366;SDS011;35245;52.026;8.540;2023-06-14T14:37:06;2.47;;;1.70;;
49366;SDS011;35245;52.026;8.540;2023-06-14T14:39:36;6.63;;;2.35;;
49366;SDS011;35245;52.026;8.540;2023-06-14T14:42:04;6.70;;;2.05;;
49366;SDS011;35245;52.026;8.540;2023-06-14T14:44:32;3.67;;;2.00;;
49366;SDS011;35245;52.026;8.540;2023-06-14T14:47:00;5.30;;;2.40;;
49366;SDS011;35245;52.026;8.540;2023-06-14T14:49:27;3.55;;;1.92;;
49366;SDS011;35245;52.026;8.540;2023-06-14T14:51:55;3.53;;;2.05;;
49366;SDS011;35245;52.026;8.540;2023-06-14T14:54:22;3.42;;;1.80;;
49366;SDS011;35245;52.026;8.540;2023-06-14T14:56:51;2.97;;;1.80;;
49366;SDS011;35245;52.026;8.540;2023-06-14T14:59:18;4.15;;;2.15;;
49366;SDS011;35245;52.026;8.540;2023-06-14T15:01:47;2.70;;;1.58;;
49366;SDS011;35245;52.026;8.540;2023-06-14T15:04:14;3.03;;;1.80;;